Time;durP1;ratioP1;P1;durP2;ratioP2;P2;SDS_P1;SDS_P2;PMS_P1;PMS_P2;Temp;Humidity;BMP_temperature;BMP_pressure;BME280_temperature;BME280_humidity;BME280_pressure;Samples;Min_cycle;Max_cycle;Signal;HPM_P1;HPM_P2
2023/09/23 00:00:14;;;;;;;1.50;1.10;;;13.80;98.20;;;;;;4976471;28;20482;-80
2023/09/23 00:02:43;;;;;;;1.50;1.00;;;13.80;98.20;;;;;;4962864;28;20535;-80
2023/09/23 00:05:11;;;;;;;1.50;1.00;;;13.90;98.20;;;;;;4968773;28;20473;-79
2023/09/23 00:07:38;;;;;;;1.50;1.00;;;13.90;98.20;;;;;;4963136;28;21009;-79
2023/09/23 00:10:07;;;;;;;1.50;1.00;;;13.90;98.20;;;;;;4977803;28;21095;-79
2023/09/23 00:12:36;;;;;;;1.50;1.00;;;13.90;98.20;;;;;;4978821;28;20490;-81
2023/09/23 00:15:05;;;;;;;1.50;1.00;;;13.90;98.20;;;;;;4973291;28;20959;-79
2023/09/23 00:17:32;;;;;;;1.50;1.10;;;13.90;98.20;;;;;;4978476;28;20496;-80
2023/09/23 00:19:58;;;;;;;1.50;1.00;;;13.90;98.20;;;;;;4978078;28;20651;-79
2023/09/23 00:22:25;;;;;;;1.50;1.00;;;13.80;98.20;;;;;;4964042;28;20482;-79
2023/09/23 00:24:54;;;;;;;1.50;1.00;;;13.80;98.20;;;;;;4968052;28;20843;-79
2023/09/23 00:27:21;;;;;;;1.50;1.10;;;13.80;98.20;;;;;;4965144;28;20489;-79
2023/09/23 00:29:50;;;;;;;1.50;1.00;;;13.70;98.20;;;;;;4974000;28;20492;-80
2023/09/23 00:32:17;;;;;;;1.50;1.00;;;13.70;98.20;;;;;;4963231;28;20541;-78
2023/09/23 00:34:44;;;;;;;1.50;1.00;;;13.60;98.20;;;;;;4968971;28;20463;-79
2023/09/23 00:37:11;;;;;;;1.50;1.10;;;13.60;98.20;;;;;;4965111;28;20490;-79
2023/09/23 00:39:42;;;;;;;1.50;1.00;;;13.50;98.20;;;;;;4975687;28;20461;-78
2023/09/23 00:42:10;;;;;;;1.50;1.00;;;13.40;98.20;;;;;;4961139;28;20516;-79
2023/09/23 00:44:40;;;;;;;1.50;1.00;;;13.40;98.20;;;;;;4977504;28;20512;-78
2023/09/23 00:47:13;;;;;;;1.50;1.00;;;13.30;98.20;;;;;;4975159;28;20483;-79
2023/09/23 00:49:44;;;;;;;1.50;1.00;;;13.30;98.20;;;;;;4981671;28;20552;-80
2023/09/23 00:52:13;;;;;;;1.50;1.10;;;13.30;98.20;;;;;;4958302;28;20498;-78
2023/09/23 00:54:42;;;;;;;1.50;1.10;;;13.20;98.20;;;;;;4960953;28;20490;-79
2023/09/23 00:57:09;;;;;;;1.50;1.10;;;13.20;98.20;;;;;;4972005;28;20495;-78
2023/09/23 00:59:37;;;;;;;1.50;1.07;;;13.10;98.20;;;;;;4972335;28;20541;-78
2023/09/23 01:02:04;;;;;;;1.50;1.10;;;13.10;98.20;;;;;;4976249;28;20473;-78
2023/09/23 01:04:33;;;;;;;1.50;1.10;;;13.10;98.20;;;;;;4983144;28;20458;-79
2023/09/23 01:07:02;;;;;;;1.50;1.10;;;13.10;98.20;;;;;;4976080;28;20975;-78
2023/09/23 01:09:31;;;;;;;1.50;1.00;;;13.10;98.20;;;;;;4975275;28;21027;-78
2023/09/23 01:11:58;;;;;;;1.50;1.00;;;13.10;98.20;;;;;;4969110;28;20506;-78
2023/09/23 01:14:25;;;;;;;1.50;1.00;;;13.10;98.20;;;;;;4982736;28;20486;-78
2023/09/23 01:16:52;;;;;;;1.50;1.10;;;13.10;98.20;;;;;;4970183;28;21281;-79
2023/09/23 01:19:21;;;;;;;1.50;1.00;;;13.10;98.20;;;;;;4978308;28;20492;-78
2023/09/23 01:21:49;;;;;;;1.50;1.00;;;13.10;98.20;;;;;;4965432;28;20549;-78
2023/09/23 01:24:18;;;;;;;1.50;1.10;;;13.00;98.20;;;;;;4974042;28;20458;-80
2023/09/23 01:26:51;;;;;;;1.53;1.13;;;13.00;98.20;;;;;;4975837;28;20472;-78
2023/09/23 01:29:22;;;;;;;1.50;1.00;;;13.00;98.20;;;;;;4986715;28;20460;-78
2023/09/23 01:32:07;;;;;;;1.50;1.10;;;13.00;98.20;;;;;;4963057;28;20509;-78
2023/09/23 01:34:34;;;;;;;1.50;1.07;;;12.90;98.20;;;;;;4981161;28;20489;-79
2023/09/23 01:37:01;;;;;;;1.60;1.20;;;12.90;98.20;;;;;;4968764;28;21028;-78
2023/09/23 01:39:29;;;;;;;1.50;1.00;;;12.90;98.20;;;;;;4986800;28;20929;-80
2023/09/23 01:41:56;;;;;;;1.53;1.10;;;12.90;98.20;;;;;;4966904;28;20477;-78
2023/09/23 01:44:23;;;;;;;1.50;1.00;;;12.80;98.20;;;;;;4981020;28;20553;-78
2023/09/23 01:46:49;;;;;;;1.50;1.00;;;12.80;98.20;;;;;;4964084;28;20513;-78
2023/09/23 01:49:17;;;;;;;1.53;1.10;;;12.80;98.20;;;;;;4970975;28;20470;-78
2023/09/23 01:51:44;;;;;;;1.53;1.10;;;12.80;98.20;;;;;;4977099;28;20495;-79
2023/09/23 01:54:16;;;;;;;1.50;1.10;;;12.80;98.20;;;;;;4981670;28;20486;-78
2023/09/23 01:56:44;;;;;;;3.27;3.00;;;12.80;98.20;;;;;;4967768;28;20483;-79
2023/09/23 01:59:12;;;;;;;1.53;1.10;;;12.70;98.20;;;;;;4977310;28;20465;-79
2023/09/23 02:01:40;;;;;;;1.50;1.10;;;12.70;98.20;;;;;;4968578;28;20543;-79
2023/09/23 02:04:08;;;;;;;1.53;1.10;;;12.70;98.20;;;;;;4972823;28;20972;-78
2023/09/23 02:06:39;;;;;;;1.50;1.00;;;12.60;98.20;;;;;;4966590;28;20512;-78
2023/09/23 02:09:08;;;;;;;1.50;1.10;;;12.60;98.20;;;;;;4975880;28;20955;-78
2023/09/23 02:11:35;;;;;;;1.50;1.10;;;12.60;98.20;;;;;;4968591;28;21062;-80
2023/09/23 02:14:04;;;;;;;1.57;1.10;;;12.60;98.20;;;;;;4972246;28;20517;-79
2023/09/23 02:16:30;;;;;;;1.57;1.10;;;12.60;98.20;;;;;;4968596;28;20488;-78
2023/09/23 02:18:57;;;;;;;1.50;1.10;;;12.60;98.20;;;;;;4979783;28;20851;-80
2023/09/23 02:21:27;;;;;;;1.50;1.00;;;12.60;98.20;;;;;;4975864;28;20468;-79
2023/09/23 02:23:55;;;;;;;1.50;1.10;;;12.60;98.20;;;;;;4983332;28;20472;-78
2023/09/23 02:26:22;;;;;;;1.50;1.10;;;12.60;98.20;;;;;;4967410;28;20477;-79
2023/09/23 02:28:49;;;;;;;1.50;1.10;;;12.60;98.20;;;;;;4989027;28;20483;-79
2023/09/23 02:31:17;;;;;;;1.50;1.10;;;12.60;98.20;;;;;;4972275;28;20496;-79
2023/09/23 02:33:44;;;;;;;1.50;1.07;;;12.60;98.20;;;;;;4995542;28;20484;-80
2023/09/23 02:36:14;;;;;;;1.60;1.10;;;12.50;98.20;;;;;;4973897;28;20539;-81
2023/09/23 02:38:42;;;;;;;1.50;1.07;;;12.50;98.20;;;;;;4991800;28;20465;-78
2023/09/23 02:41:09;;;;;;;1.50;1.00;;;12.50;98.20;;;;;;4969026;28;20477;-78
2023/09/23 02:43:37;;;;;;;1.50;1.10;;;12.50;98.20;;;;;;4995411;28;20898;-79
2023/09/23 02:46:05;;;;;;;1.50;1.10;;;12.50;98.20;;;;;;4966646;28;20466;-78
2023/09/23 02:48:34;;;;;;;1.50;1.10;;;12.50;98.20;;;;;;4993587;28;20466;-78
2023/09/23 02:51:00;;;;;;;1.57;1.10;;;12.40;98.20;;;;;;4970916;28;20492;-78
2023/09/23 02:53:30;;;;;;;1.50;1.10;;;12.40;98.20;;;;;;4985414;28;20528;-79
2023/09/23 02:56:07;;;;;;;1.50;1.00;;;12.40;98.20;;;;;;4966051;28;20496;-81
2023/09/23 02:58:34;;;;;;;1.57;1.10;;;12.40;98.20;;;;;;4982323;28;20485;-79
2023/09/23 03:01:04;;;;;;;1.50;1.00;;;12.40;98.20;;;;;;4957527;28;20486;-78
2023/09/23 03:03:34;;;;;;;1.57;1.10;;;12.40;98.20;;;;;;4977128;28;20481;-79
2023/09/23 03:06:02;;;;;;;1.50;1.03;;;12.40;98.20;;;;;;4959209;28;20462;-79
2023/09/23 03:08:30;;;;;;;1.50;1.10;;;12.40;98.20;;;;;;4970266;28;20554;-80
2023/09/23 03:11:02;;;;;;;1.50;1.00;;;12.40;98.20;;;;;;4962549;28;20659;-81
2023/09/23 03:13:29;;;;;;;1.57;1.10;;;12.40;98.20;;;;;;4976365;28;20724;-79
2023/09/23 03:16:06;;;;;;;1.57;1.10;;;12.40;98.20;;;;;;4958811;28;20462;-81
2023/09/23 03:18:36;;;;;;;1.53;1.10;;;12.40;98.20;;;;;;4976439;28;21220;-79
2023/09/23 03:21:07;;;;;;;1.50;1.00;;;12.30;98.20;;;;;;4960419;28;20501;-79
2023/09/23 03:23:35;;;;;;;1.50;1.07;;;12.30;98.20;;;;;;4984681;28;20493;-78
2023/09/23 03:26:02;;;;;;;1.50;1.03;;;12.30;98.20;;;;;;4964535;28;20465;-79
2023/09/23 03:28:28;;;;;;;1.57;1.10;;;12.30;98.20;;;;;;4984869;28;20485;-79
2023/09/23 03:31:00;;;;;;;1.53;1.10;;;12.30;98.20;;;;;;4961080;28;20485;-80
2023/09/23 03:33:27;;;;;;;1.50;1.00;;;12.30;98.20;;;;;;4974200;28;20548;-80
2023/09/23 03:35:55;;;;;;;1.50;1.00;;;12.30;98.20;;;;;;4962893;28;20454;-82
2023/09/23 03:38:24;;;;;;;1.53;1.10;;;12.30;98.20;;;;;;4986670;28;20553;-80
2023/09/23 03:40:52;;;;;;;1.53;1.10;;;12.30;98.20;;;;;;4960066;28;20477;-80
2023/09/23 03:43:19;;;;;;;1.50;1.10;;;12.30;98.20;;;;;;4979342;28;20980;-79
2023/09/23 03:45:47;;;;;;;1.50;1.10;;;12.20;98.20;;;;;;4971841;28;20520;-81
2023/09/23 03:48:14;;;;;;;1.50;1.10;;;12.20;98.20;;;;;;4960990;28;20563;-80
2023/09/23 03:50:41;;;;;;;1.53;1.10;;;12.20;98.20;;;;;;4967723;28;20487;-80
2023/09/23 03:53:10;;;;;;;1.53;1.10;;;12.20;98.20;;;;;;4976881;28;20493;-82
2023/09/23 03:55:38;;;;;;;1.53;1.10;;;12.20;98.20;;;;;;4971231;28;20485;-80
2023/09/23 03:58:05;;;;;;;1.60;1.20;;;12.20;98.20;;;;;;4958878;28;20486;-80
2023/09/23 04:00:34;;;;;;;2.07;1.87;;;12.20;98.20;;;;;;4969723;28;20490;-79
2023/09/23 04:03:01;;;;;;;1.50;1.10;;;12.20;98.20;;;;;;4973601;28;20499;-79
2023/09/23 04:07:56;;;;;;;1.50;1.10;;;12.10;98.20;;;;;;4967631;28;20494;-82
2023/09/23 04:10:24;;;;;;;1.60;1.20;;;12.10;98.20;;;;;;4967773;28;20965;-81
2023/09/23 04:12:52;;;;;;;1.50;1.10;;;12.10;98.20;;;;;;4966723;28;20497;-82
2023/09/23 04:15:21;;;;;;;1.57;1.10;;;12.10;98.20;;;;;;4963433;28;20485;-78
2023/09/23 04:17:48;;;;;;;1.50;1.10;;;12.10;98.20;;;;;;4952214;28;20486;-80
2023/09/23 04:20:15;;;;;;;1.50;1.10;;;12.10;98.20;;;;;;4947610;28;21112;-81
2023/09/23 04:22:46;;;;;;;1.50;1.10;;;12.10;98.20;;;;;;4952683;28;20488;-81
2023/09/23 04:25:13;;;;;;;1.50;1.10;;;12.20;98.20;;;;;;4949632;28;20494;-81
2023/09/23 04:27:42;;;;;;;1.50;1.10;;;12.20;98.20;;;;;;4955983;28;20473;-80
2023/09/23 04:30:11;;;;;;;1.53;1.03;;;12.10;98.20;;;;;;4953846;28;20470;-79
2023/09/23 04:32:38;;;;;;;1.50;1.10;;;12.10;98.20;;;;;;4960567;28;20475;-80
2023/09/23 04:35:09;;;;;;;1.50;1.10;;;12.10;98.20;;;;;;4950312;28;20499;-81
2023/09/23 04:37:37;;;;;;;1.53;1.10;;;12.10;98.20;;;;;;4962013;28;21039;-81
2023/09/23 04:40:08;;;;;;;1.57;1.10;;;12.10;98.20;;;;;;4949711;28;21025;-79
2023/09/23 04:42:35;;;;;;;1.57;1.10;;;12.10;98.20;;;;;;4954122;28;20486;-79
2023/09/23 04:45:04;;;;;;;1.50;1.10;;;12.10;98.20;;;;;;4950636;28;20466;-79
2023/09/23 04:47:31;;;;;;;1.50;1.00;;;12.10;98.20;;;;;;4954542;28;21022;-80
2023/09/23 04:49:58;;;;;;;1.50;1.10;;;12.10;98.20;;;;;;4954894;28;20466;-80
2023/09/23 04:52:27;;;;;;;1.50;1.10;;;12.00;98.20;;;;;;4960576;28;20485;-81
2023/09/23 04:54:54;;;;;;;1.57;1.00;;;12.00;98.20;;;;;;4954633;28;20515;-78
2023/09/23 04:57:21;;;;;;;1.50;1.10;;;12.00;98.20;;;;;;4959010;28;20486;-81
2023/09/23 04:59:48;;;;;;;1.50;1.07;;;11.90;98.20;;;;;;4954482;28;20553;-80
2023/09/23 05:02:18;;;;;;;1.50;1.10;;;11.90;98.20;;;;;;4955732;28;21031;-79
2023/09/23 05:04:45;;;;;;;1.50;1.10;;;11.90;98.20;;;;;;4954549;28;20975;-79
2023/09/23 05:07:12;;;;;;;1.53;1.10;;;11.90;98.20;;;;;;4952416;28;20489;-80
2023/09/23 05:09:39;;;;;;;1.60;1.20;;;12.00;98.20;;;;;;4956295;28;20477;-80
2023/09/23 05:12:08;;;;;;;1.50;1.10;;;12.00;98.20;;;;;;4946160;28;21127;-79
2023/09/23 05:14:34;;;;;;;1.50;1.10;;;11.90;98.20;;;;;;4954263;28;20988;-79
2023/09/23 05:17:04;;;;;;;1.50;1.10;;;11.90;98.20;;;;;;4953441;28;20480;-80
2023/09/23 05:19:32;;;;;;;1.50;1.10;;;11.90;98.20;;;;;;4961601;28;20473;-81
2023/09/23 05:21:59;;;;;;;1.50;1.10;;;11.90;98.20;;;;;;4950916;28;20474;-80
2023/09/23 05:24:27;;;;;;;1.60;1.30;;;11.90;98.20;;;;;;4958618;28;20459;-82
2023/09/23 05:26:54;;;;;;;1.50;1.00;;;11.90;98.20;;;;;;4956035;28;20485;-82
2023/09/23 05:29:21;;;;;;;1.50;1.07;;;12.00;98.20;;;;;;4963871;28;20467;-80
2023/09/23 05:31:48;;;;;;;1.50;1.10;;;12.00;98.20;;;;;;4947921;28;20481;-81
2023/09/23 05:34:15;;;;;;;1.50;1.07;;;12.00;98.20;;;;;;4961426;28;20490;-80
2023/09/23 05:36:44;;;;;;;1.50;1.10;;;12.00;98.20;;;;;;4946125;28;20486;-81
2023/09/23 05:39:13;;;;;;;1.50;1.07;;;12.00;98.20;;;;;;4956267;28;20550;-80
2023/09/23 05:41:40;;;;;;;1.53;1.20;;;12.00;98.20;;;;;;4945297;28;20473;-80
2023/09/23 05:44:07;;;;;;;1.57;1.20;;;12.00;98.20;;;;;;4955367;28;20485;-79
2023/09/23 05:46:37;;;;;;;1.50;1.00;;;12.00;98.20;;;;;;4945720;28;20493;-80
2023/09/23 05:49:05;;;;;;;1.50;1.10;;;12.00;98.20;;;;;;4958904;28;20463;-79
2023/09/23 05:51:33;;;;;;;1.53;1.10;;;12.00;98.20;;;;;;4947739;28;20569;-77
2023/09/23 05:54:01;;;;;;;1.53;1.10;;;12.00;98.20;;;;;;4956644;28;20887;-79
2023/09/23 05:56:28;;;;;;;1.57;1.07;;;12.10;98.20;;;;;;4944928;28;21166;-79
2023/09/23 05:58:55;;;;;;;1.50;1.10;;;12.10;98.20;;;;;;4954936;28;20475;-78
2023/09/23 06:01:22;;;;;;;1.53;1.10;;;12.10;98.20;;;;;;4944057;28;20474;-79
2023/09/23 06:03:50;;;;;;;1.50;1.00;;;12.10;98.20;;;;;;4958270;28;20507;-78
2023/09/23 06:06:16;;;;;;;1.50;1.10;;;12.20;98.20;;;;;;4942618;28;20513;-78
2023/09/23 06:08:43;;;;;;;1.60;1.10;;;12.20;98.20;;;;;;4963299;28;20902;-78
2023/09/23 06:11:14;;;;;;;1.57;1.10;;;12.20;98.20;;;;;;4943325;28;20488;-79
2023/09/23 06:13:41;;;;;;;1.53;1.10;;;12.30;98.20;;;;;;4961959;28;20471;-79
2023/09/23 06:16:08;;;;;;;1.50;1.10;;;12.30;98.20;;;;;;4940122;28;20478;-77
2023/09/23 06:18:34;;;;;;;1.50;1.10;;;12.30;98.20;;;;;;4964697;28;20537;-79
2023/09/23 06:21:02;;;;;;;1.53;1.10;;;12.40;98.20;;;;;;4941362;28;20929;-77
2023/09/23 06:23:29;;;;;;;1.50;1.00;;;12.50;98.20;;;;;;4963192;28;20474;-78
2023/09/23 06:25:57;;;;;;;1.50;1.10;;;12.60;98.20;;;;;;4940066;28;21032;-78
2023/09/23 06:28:25;;;;;;;1.60;1.10;;;12.70;98.20;;;;;;4962762;28;20502;-78
2023/09/23 06:30:52;;;;;;;1.53;1.10;;;12.80;98.20;;;;;;4940237;28;20463;-79
2023/09/23 06:33:19;;;;;;;1.50;1.00;;;12.90;98.20;;;;;;4966203;28;20878;-79
2023/09/23 06:35:47;;;;;;;1.50;1.00;;;12.90;98.20;;;;;;4942449;28;20518;-78
2023/09/23 06:38:14;;;;;;;1.50;1.10;;;13.00;98.20;;;;;;4963956;28;20482;-78
2023/09/23 06:40:41;;;;;;;1.53;1.10;;;13.00;98.20;;;;;;4945579;28;20467;-78
2023/09/23 06:43:08;;;;;;;1.50;1.00;;;13.10;98.20;;;;;;4955496;28;20519;-77
2023/09/23 06:45:36;;;;;;;1.50;1.03;;;13.10;98.20;;;;;;4948238;28;20487;-79
2023/09/23 06:48:07;;;;;;;1.57;1.10;;;13.20;98.20;;;;;;4952562;28;20669;-79
2023/09/23 06:50:40;;;;;;;1.57;1.20;;;13.30;98.20;;;;;;4947598;28;20529;-78
2023/09/23 06:53:07;;;;;;;1.57;1.00;;;13.40;98.20;;;;;;4951806;28;20515;-77
2023/09/23 06:55:33;;;;;;;1.60;1.20;;;13.50;98.20;;;;;;4948281;28;20886;-78
2023/09/23 06:58:00;;;;;;;1.50;1.10;;;13.60;98.20;;;;;;4951190;28;20513;-78
2023/09/23 07:00:27;;;;;;;1.60;1.10;;;13.70;98.20;;;;;;4947029;28;20574;-79
2023/09/23 07:02:56;;;;;;;1.53;1.00;;;13.80;98.20;;;;;;4951703;28;20492;-79
2023/09/23 07:05:23;;;;;;;1.50;1.00;;;14.00;98.20;;;;;;4947097;28;20549;-78
2023/09/23 07:07:50;;;;;;;1.50;1.00;;;14.10;98.20;;;;;;4955179;28;20485;-78
2023/09/23 07:10:17;;;;;;;1.53;1.00;;;14.10;98.20;;;;;;4945714;28;20474;-79
2023/09/23 07:12:44;;;;;;;1.50;1.00;;;14.10;98.20;;;;;;4951285;28;20713;-79
2023/09/23 07:15:11;;;;;;;1.50;1.00;;;14.20;98.20;;;;;;4944937;28;20789;-78
2023/09/23 07:17:38;;;;;;;1.50;1.00;;;14.40;98.20;;;;;;4955559;28;20492;-78
2023/09/23 07:20:08;;;;;;;1.50;1.10;;;14.50;98.20;;;;;;4949028;28;20832;-78
2023/09/23 07:22:35;;;;;;;1.50;1.00;;;14.70;98.20;;;;;;4951467;28;20523;-79
2023/09/23 07:25:03;;;;;;;1.50;1.00;;;14.80;98.20;;;;;;4948572;28;20594;-79
2023/09/23 07:27:32;;;;;;;1.50;1.00;;;15.00;98.20;;;;;;4947994;28;20489;-80
2023/09/23 07:29:59;;;;;;;1.53;1.00;;;15.10;98.20;;;;;;4949042;28;20550;-78
2023/09/23 07:32:26;;;;;;;1.53;1.00;;;15.30;98.20;;;;;;4946479;28;20469;-78
2023/09/23 07:34:53;;;;;;;1.53;1.00;;;15.40;98.20;;;;;;4950151;28;20491;-78
2023/09/23 07:37:23;;;;;;;1.50;1.10;;;15.60;98.20;;;;;;4950889;28;20486;-78
2023/09/23 07:39:50;;;;;;;1.53;1.00;;;15.70;98.20;;;;;;4947799;28;20558;-78
2023/09/23 07:42:17;;;;;;;1.60;1.00;;;15.70;98.20;;;;;;4950133;28;20481;-78
2023/09/23 07:44:44;;;;;;;1.50;1.00;;;15.80;98.20;;;;;;4949748;28;20471;-77
2023/09/23 07:47:11;;;;;;;1.50;1.00;;;16.00;98.20;;;;;;4946598;28;20493;-77
2023/09/23 07:49:39;;;;;;;1.57;1.00;;;16.10;98.20;;;;;;4952185;28;20838;-77
2023/09/23 07:52:06;;;;;;;1.50;0.90;;;16.20;98.20;;;;;;4946381;28;21135;-77
2023/09/23 07:54:34;;;;;;;1.50;1.00;;;16.30;98.20;;;;;;4949560;28;20474;-77
2023/09/23 07:57:01;;;;;;;1.50;1.00;;;16.30;98.20;;;;;;4948051;28;21595;-77
2023/09/23 07:59:28;;;;;;;1.50;1.00;;;16.30;98.20;;;;;;4956407;28;20473;-77
2023/09/23 08:01:55;;;;;;;1.50;1.00;;;16.40;98.20;;;;;;4948984;28;20569;-77
2023/09/23 08:04:21;;;;;;;1.50;1.00;;;16.40;98.20;;;;;;4958855;28;20494;-76
2023/09/23 08:06:49;;;;;;;1.50;1.00;;;16.30;98.20;;;;;;4950750;28;20490;-78
2023/09/23 08:09:16;;;;;;;1.50;1.00;;;16.20;98.20;;;;;;4959072;28;20468;-77
2023/09/23 08:11:44;;;;;;;1.50;1.00;;;16.30;98.20;;;;;;4946153;28;20481;-78
2023/09/23 08:14:11;;;;;;;1.50;1.00;;;16.30;98.20;;;;;;4957886;28;20470;-77
2023/09/23 08:16:39;;;;;;;1.50;1.00;;;16.40;98.20;;;;;;4945635;28;20505;-77
2023/09/23 08:19:11;;;;;;;1.50;1.00;;;16.40;98.20;;;;;;4959145;28;20471;-77
2023/09/23 08:21:39;;;;;;;1.50;1.00;;;16.40;98.20;;;;;;4952555;28;20583;-77
2023/09/23 08:24:06;;;;;;;1.50;1.00;;;16.40;98.20;;;;;;4957814;28;20462;-77
2023/09/23 08:26:33;;;;;;;1.50;0.90;;;16.50;98.20;;;;;;4946501;28;20573;-76
2023/09/23 08:29:02;;;;;;;1.50;1.10;;;16.70;98.20;;;;;;4957917;28;20474;-76
2023/09/23 08:31:29;;;;;;;1.50;1.00;;;16.70;98.20;;;;;;4948094;28;20482;-77
2023/09/23 08:33:56;;;;;;;1.50;1.00;;;16.80;98.20;;;;;;4962279;28;21042;-76
2023/09/23 08:36:44;;;;;;;1.50;1.00;;;16.80;98.20;;;;;;4950889;28;20544;-78
2023/09/23 08:39:11;;;;;;;1.50;1.00;;;16.80;98.20;;;;;;4949680;28;20977;-76
2023/09/23 08:41:40;;;;;;;1.50;0.93;;;16.90;98.20;;;;;;4947826;28;20566;-77
2023/09/23 08:44:10;;;;;;;1.50;0.93;;;17.00;98.20;;;;;;4959109;28;20474;-77
2023/09/23 08:46:38;;;;;;;1.50;1.00;;;17.10;98.20;;;;;;4947479;28;20495;-76
2023/09/23 08:49:06;;;;;;;1.53;1.00;;;17.20;98.20;;;;;;4959791;28;20718;-76
2023/09/23 08:51:34;;;;;;;1.50;1.00;;;17.20;98.20;;;;;;4947324;28;20496;-78
2023/09/23 08:54:01;;;;;;;1.50;0.90;;;17.10;98.20;;;;;;4958811;28;20554;-77
2023/09/23 08:56:28;;;;;;;1.50;0.90;;;16.90;98.20;;;;;;4945634;28;20516;-78
2023/09/23 08:59:08;;;;;;;1.50;0.90;;;16.90;98.20;;;;;;4958223;28;20467;-76
2023/09/23 09:01:46;;;;;;;1.50;1.00;;;16.90;98.20;;;;;;4945461;28;20612;-77
2023/09/23 09:04:14;;;;;;;1.50;0.90;;;17.10;98.20;;;;;;4957151;28;20463;-76
2023/09/23 09:06:48;;;;;;;1.50;0.90;;;17.30;98.20;;;;;;4948273;28;20493;-75
2023/09/23 09:09:16;;;;;;;1.50;0.90;;;17.50;98.20;;;;;;4957501;28;20571;-78
2023/09/23 09:11:45;;;;;;;1.50;1.00;;;17.70;98.20;;;;;;4945640;28;20564;-77
2023/09/23 09:14:12;;;;;;;1.57;0.90;;;17.80;98.20;;;;;;4956722;28;20467;-76
2023/09/23 09:16:42;;;;;;;1.50;1.00;;;17.90;98.20;;;;;;4942915;28;20489;-75
2023/09/23 09:19:09;;;;;;;1.50;1.00;;;18.00;98.20;;;;;;4954470;28;20473;-74
2023/09/23 09:21:37;;;;;;;1.50;1.00;;;17.90;98.20;;;;;;4945082;28;20865;-78
2023/09/23 09:24:04;;;;;;;1.50;0.90;;;17.80;98.20;;;;;;4959229;28;20885;-77
2023/09/23 09:26:31;;;;;;;1.50;1.00;;;17.70;98.20;;;;;;4946156;28;20556;-77
2023/09/23 09:28:58;;;;;;;1.50;0.90;;;17.70;98.20;;;;;;4956450;28;20845;-76
2023/09/23 09:31:33;;;;;;;1.50;0.90;;;17.60;98.20;;;;;;4943295;28;20483;-77
2023/09/23 09:34:05;;;;;;;1.50;0.90;;;17.50;98.20;;;;;;4956898;28;20901;-78
2023/09/23 09:36:34;;;;;;;1.50;0.90;;;17.40;98.20;;;;;;4946541;28;21125;-76
2023/09/23 09:39:08;;;;;;;1.50;1.10;;;17.30;98.20;;;;;;4956105;28;20458;-77
2023/09/23 09:41:46;;;;;;;1.50;0.90;;;17.20;98.20;;;;;;4947100;28;20485;-79
2023/09/23 09:44:14;;;;;;;1.50;0.90;;;17.10;98.20;;;;;;4954369;28;20472;-76
2023/09/23 09:46:43;;;;;;;1.50;1.00;;;17.20;98.20;;;;;;4946464;28;20481;-78
2023/09/23 09:49:16;;;;;;;1.50;1.00;;;17.30;98.20;;;;;;4955297;28;20465;-76
2023/09/23 09:51:48;;;;;;;1.50;0.90;;;17.70;98.20;;;;;;4945926;28;21032;-75
2023/09/23 09:54:18;;;;;;;1.50;0.90;;;18.00;98.20;;;;;;4954052;28;20463;-74
2023/09/23 09:56:47;;;;;;;1.50;0.90;;;18.10;98.20;;;;;;4946935;28;20489;-74
2023/09/23 09:59:23;;;;;;;1.50;1.00;;;18.30;98.20;;;;;;4952867;28;20913;-77
2023/09/23 10:01:52;;;;;;;1.50;1.00;;;18.40;98.20;;;;;;4943172;28;20564;-76
2023/09/23 10:04:20;;;;;;;1.50;1.00;;;18.50;98.20;;;;;;4953043;28;20458;-76
2023/09/23 10:06:54;;;;;;;1.57;1.10;;;18.60;98.20;;;;;;4943865;28;21001;-77
2023/09/23 10:09:27;;;;;;;1.50;1.00;;;18.50;98.20;;;;;;4953066;28;20474;-76
2023/09/23 10:11:55;;;;;;;1.50;1.10;;;18.40;98.20;;;;;;4945247;28;20478;-75
2023/09/23 10:14:23;;;;;;;1.50;0.90;;;18.40;98.20;;;;;;4952095;28;20890;-77
2023/09/23 10:16:50;;;;;;;1.50;0.90;;;18.40;98.20;;;;;;4946305;28;20927;-77
2023/09/23 10:19:28;;;;;;;1.50;0.93;;;18.40;98.20;;;;;;4953845;28;20479;-77
2023/09/23 10:22:09;;;;;;;1.50;0.90;;;18.20;98.20;;;;;;4944757;28;20477;-75
2023/09/23 10:24:36;;;;;;;1.50;0.90;;;18.10;98.20;;;;;;4950675;28;20466;-76
2023/09/23 10:27:09;;;;;;;1.50;0.93;;;18.00;98.20;;;;;;4949283;28;20485;-77
2023/09/23 10:29:45;;;;;;;1.50;0.90;;;18.00;98.20;;;;;;4955800;28;20463;-77
2023/09/23 10:32:14;;;;;;;1.50;0.97;;;17.90;98.20;;;;;;4936408;28;20479;-77
2023/09/23 10:34:49;;;;;;;1.50;0.90;;;17.90;98.20;;;;;;4947422;28;20466;-77
2023/09/23 10:37:27;;;;;;;1.50;0.90;;;17.90;98.20;;;;;;4953330;28;20493;-78
2023/09/23 10:39:54;;;;;;;1.50;0.90;;;18.00;98.20;;;;;;4951771;28;20497;-75
2023/09/23 10:42:21;;;;;;;1.50;0.90;;;18.10;98.20;;;;;;4952503;28;20469;-76
2023/09/23 10:44:48;;;;;;;1.50;0.97;;;18.10;98.20;;;;;;4950736;28;20467;-76
2023/09/23 10:47:16;;;;;;;1.50;1.00;;;18.20;98.20;;;;;;4952479;28;20493;-75
2023/09/23 10:49:43;;;;;;;1.50;0.97;;;18.30;98.20;;;;;;4951079;28;20463;-75
2023/09/23 10:52:11;;;;;;;1.50;0.90;;;18.30;98.20;;;;;;4944595;28;20510;-76
2023/09/23 10:54:40;;;;;;;1.50;1.00;;;18.20;98.20;;;;;;4951461;28;20466;-75
2023/09/23 10:57:07;;;;;;;1.50;1.00;;;18.20;98.20;;;;;;4946243;28;21561;-76
2023/09/23 10:59:34;;;;;;;1.50;0.90;;;18.30;98.20;;;;;;4952225;28;20469;-76
2023/09/23 11:02:04;;;;;;;1.50;0.90;;;18.50;98.20;;;;;;4948279;28;20497;-76
2023/09/23 11:04:30;;;;;;;1.50;0.90;;;18.80;98.20;;;;;;4956033;28;20549;-77
2023/09/23 11:06:57;;;;;;;1.50;0.90;;;19.10;98.20;;;;;;4943785;28;20486;-77
2023/09/23 11:09:25;;;;;;;1.50;0.90;;;19.20;98.20;;;;;;4947798;28;20824;-76
2023/09/23 11:11:54;;;;;;;1.50;0.90;;;19.30;98.20;;;;;;4944869;28;21039;-76
2023/09/23 11:14:21;;;;;;;1.50;0.90;;;19.30;98.20;;;;;;4952747;28;20456;-74
2023/09/23 11:16:49;;;;;;;1.50;0.90;;;19.20;98.20;;;;;;4945050;28;20900;-74
2023/09/23 11:19:17;;;;;;;1.50;0.90;;;19.10;98.20;;;;;;4955856;28;20554;-76
2023/09/23 11:21:44;;;;;;;1.50;0.90;;;19.00;98.20;;;;;;4944875;28;20497;-76
2023/09/23 11:24:11;;;;;;;1.50;1.10;;;18.90;98.20;;;;;;4955198;28;20534;-78
2023/09/23 11:26:40;;;;;;;1.50;1.00;;;18.90;98.20;;;;;;4946781;28;20484;-76
2023/09/23 11:29:08;;;;;;;1.50;1.00;;;19.00;98.20;;;;;;4955568;28;20970;-78
2023/09/23 11:31:35;;;;;;;1.50;0.90;;;19.10;98.20;;;;;;4943684;28;21082;-77
2023/09/23 11:34:02;;;;;;;1.50;0.90;;;19.10;98.20;;;;;;4956432;28;20473;-76
2023/09/23 11:36:29;;;;;;;1.50;1.00;;;19.20;98.20;;;;;;4945025;28;21091;-77
2023/09/23 11:38:56;;;;;;;1.50;0.93;;;19.20;98.20;;;;;;4958397;28;20530;-78
2023/09/23 11:41:23;;;;;;;1.47;0.90;;;19.20;98.20;;;;;;4936349;28;20482;-77
2023/09/23 11:43:50;;;;;;;1.50;1.00;;;19.30;98.20;;;;;;4955715;28;20463;-77
2023/09/23 11:46:20;;;;;;;1.50;0.90;;;19.30;98.20;;;;;;4937538;28;20605;-77
2023/09/23 11:48:48;;;;;;;1.50;0.90;;;19.40;98.20;;;;;;4957551;28;20467;-78
2023/09/23 11:51:17;;;;;;;1.47;0.90;;;19.40;97.80;;;;;;4935167;28;20481;-77
2023/09/23 11:53:44;;;;;;;1.50;0.93;;;19.50;98.20;;;;;;4955755;28;20527;-77
2023/09/23 11:56:12;;;;;;;1.50;0.90;;;19.50;97.60;;;;;;4939677;28;20502;-77
2023/09/23 11:58:39;;;;;;;1.50;0.90;;;19.60;98.20;;;;;;4961489;28;20467;-78
2023/09/23 12:01:06;;;;;;;1.50;0.90;;;19.70;97.70;;;;;;4939137;28;20821;-77
2023/09/23 12:03:34;;;;;;;1.50;0.90;;;19.60;97.30;;;;;;4958713;28;20470;-78
2023/09/23 12:06:02;;;;;;;1.47;0.90;;;19.70;96.80;;;;;;4937247;28;20490;-77
2023/09/23 12:08:29;;;;;;;1.50;0.90;;;19.90;96.10;;;;;;4959408;28;20476;-78
2023/09/23 12:10:56;;;;;;;1.50;0.90;;;20.10;95.80;;;;;;4937463;28;20490;-77
2023/09/23 12:13:24;;;;;;;1.50;0.90;;;20.40;94.90;;;;;;4959504;28;20459;-78
2023/09/23 12:15:53;;;;;;;1.50;1.00;;;20.60;93.30;;;;;;4935909;28;20479;-77
2023/09/23 12:18:19;;;;;;;1.43;0.90;;;20.60;92.60;;;;;;4960476;28;20566;-78
2023/09/23 12:20:48;;;;;;;1.50;1.00;;;20.60;94.00;;;;;;4946521;28;20466;-79
2023/09/23 12:23:15;;;;;;;1.47;0.90;;;20.60;93.60;;;;;;4933538;28;20480;-77
2023/09/23 12:25:43;;;;;;;1.50;0.90;;;20.60;94.80;;;;;;4945875;28;20519;-78
2023/09/23 12:28:09;;;;;;;1.50;0.90;;;20.60;94.00;;;;;;4951930;28;20499;-79
2023/09/23 12:30:36;;;;;;;1.47;0.90;;;20.40;93.10;;;;;;4944793;28;20553;-77
2023/09/23 12:33:04;;;;;;;1.50;0.90;;;20.40;94.40;;;;;;4954886;28;20572;-77
2023/09/23 12:35:30;;;;;;;1.47;0.90;;;20.40;94.60;;;;;;4944562;28;20489;-78
2023/09/23 12:37:58;;;;;;;1.50;0.90;;;20.40;94.40;;;;;;4951052;28;20984;-78
2023/09/23 12:40:25;;;;;;;1.43;0.90;;;20.40;95.60;;;;;;4941444;28;20476;-80
2023/09/23 12:42:52;;;;;;;1.50;0.90;;;20.40;94.40;;;;;;4949873;28;20575;-79
2023/09/23 12:45:19;;;;;;;1.50;0.90;;;20.30;95.10;;;;;;4946146;28;20478;-77
2023/09/23 12:47:46;;;;;;;1.43;0.90;;;20.30;95.00;;;;;;4957845;28;20869;-77
2023/09/23 12:50:13;;;;;;;1.47;0.90;;;20.50;95.20;;;;;;4947703;28;20502;-78
2023/09/23 12:52:41;;;;;;;1.50;0.90;;;20.60;93.10;;;;;;4950707;28;20933;-79
2023/09/23 12:55:10;;;;;;;1.47;0.90;;;20.80;94.60;;;;;;4947336;28;20474;-80